sensor_id;sensor_type;location;lat;lon;timestamp;pressure;altitude;pressure_sealevel;temperature;humidity
43125;BME280;49182;50.788;7.318;2023-04-29T00:00:33;100527.06;;;13.57;92.67
43125;BME280;49182;50.788;7.318;2023-04-29T00:03:00;100538.88;;;13.71;92.29
43125;BME280;49182;50.788;7.318;2023-04-29T00:05:27;100536.41;;;13.69;90.67
43125;BME280;49182;50.788;7.318;2023-04-29T00:07:53;100542.78;;;13.59;91.08
43125;BME280;49182;50.788;7.318;2023-04-29T00:10:20;100541.50;;;13.63;90.31
43125;BME280;49182;50.788;7.318;2023-04-29T00:12:46;100549.78;;;13.60;90.02
43125;BME280;49182;50.788;7.318;2023-04-29T00:15:14;100555.69;;;13.54;90.17
43125;BME280;49182;50.788;7.318;2023-04-29T00:17:41;100548.91;;;13.51;89.60
43125;BME280;49182;50.788;7.318;2023-04-29T00:20:09;100554.13;;;13.43;89.98
43125;BME280;49182;50.788;7.318;2023-04-29T00:22:35;100557.03;;;13.32;89.51
43125;BME280;49182;50.788;7.318;2023-04-29T00:25:03;100555.03;;;13.34;89.42
43125;BME280;49182;50.788;7.318;2023-04-29T00:27:30;100551.88;;;13.30;89.17
43125;BME280;49182;50.788;7.318;2023-04-29T00:29:56;100561.19;;;13.34;88.82
43125;BME280;49182;50.788;7.318;2023-04-29T00:32:24;100574.63;;;13.33;88.21
43125;BME280;49182;50.788;7.318;2023-04-29T00:34:51;100569.44;;;13.31;88.25
43125;BME280;49182;50.788;7.318;2023-04-29T00:37:17;100571.28;;;13.31;88.44
43125;BME280;49182;50.788;7.318;2023-04-29T00:39:44;100561.13;;;13.26;88.19
43125;BME280;49182;50.788;7.318;2023-04-29T00:42:11;100575.88;;;13.29;87.95
43125;BME280;49182;50.788;7.318;2023-04-29T00:44:37;100581.66;;;13.24;87.84
43125;BME280;49182;50.788;7.318;2023-04-29T00:47:04;100587.31;;;13.29;87.97
43125;BME280;49182;50.788;7.318;2023-04-29T00:49:32;100586.34;;;13.30;87.49
43125;BME280;49182;50.788;7.318;2023-04-29T00:51:59;100589.97;;;13.29;87.48
43125;BME280;49182;50.788;7.318;2023-04-29T00:54:26;100585.66;;;13.28;87.62
43125;BME280;49182;50.788;7.318;2023-04-29T00:56:53;100591.28;;;13.25;87.65
43125;BME280;49182;50.788;7.318;2023-04-29T00:59:21;100595.66;;;13.17;86.17
43125;BME280;49182;50.788;7.318;2023-04-29T01:01:48;100597.28;;;13.00;86.50
43125;BME280;49182;50.788;7.318;2023-04-29T01:04:15;100566.13;;;12.84;85.88
43125;BME280;49182;50.788;7.318;2023-04-29T01:06:49;100599.63;;;13.03;85.32
43125;BME280;49182;50.788;7.318;2023-04-29T01:09:28;100578.66;;;12.92;85.09
43125;BME280;49182;50.788;7.318;2023-04-29T01:12:05;100599.09;;;13.00;85.06
43125;BME280;49182;50.788;7.318;2023-04-29T01:14:35;100544.09;;;12.66;85.04
43125;BME280;49182;50.788;7.318;2023-04-29T01:17:06;100607.94;;;12.90;84.53
43125;BME280;49182;50.788;7.318;2023-04-29T01:19:38;100599.09;;;12.82;85.21
43125;BME280;49182;50.788;7.318;2023-04-29T01:22:10;100595.47;;;12.83;84.24
43125;BME280;49182;50.788;7.318;2023-04-29T01:24:39;100609.53;;;12.83;83.70
43125;BME280;49182;50.788;7.318;2023-04-29T01:27:16;100612.09;;;12.75;82.99
43125;BME280;49182;50.788;7.318;2023-04-29T01:29:52;100611.16;;;12.67;83.53
43125;BME280;49182;50.788;7.318;2023-04-29T01:32:30;100583.34;;;12.53;82.36
43125;BME280;49182;50.788;7.318;2023-04-29T01:35:10;100616.44;;;12.67;82.23
43125;BME280;49182;50.788;7.318;2023-04-29T01:37:49;100604.25;;;12.56;82.55
43125;BME280;49182;50.788;7.318;2023-04-29T01:40:25;100606.91;;;12.56;82.01
43125;BME280;49182;50.788;7.318;2023-04-29T01:43:04;100607.88;;;12.55;82.11
43125;BME280;49182;50.788;7.318;2023-04-29T01:45:33;100621.38;;;12.62;81.37
43125;BME280;49182;50.788;7.318;2023-04-29T01:48:03;100621.81;;;12.57;81.01
43125;BME280;49182;50.788;7.318;2023-04-29T01:50:30;100622.78;;;12.56;81.37
43125;BME280;49182;50.788;7.318;2023-04-29T01:53:17;100601.75;;;12.27;81.24
43125;BME280;49182;50.788;7.318;2023-04-29T01:55:47;100620.53;;;12.24;81.78
43125;BME280;49182;50.788;7.318;2023-04-29T01:58:24;100626.94;;;12.31;82.13
43125;BME280;49182;50.788;7.318;2023-04-29T02:00:58;100628.03;;;12.38;81.03
43125;BME280;49182;50.788;7.318;2023-04-29T02:03:28;100624.16;;;12.33;81.65
43125;BME280;49182;50.788;7.318;2023-04-29T02:05:56;100622.16;;;12.35;81.53
43125;BME280;49182;50.788;7.318;2023-04-29T02:08:23;100622.22;;;12.25;81.99
43125;BME280;49182;50.788;7.318;2023-04-29T02:10:54;100615.97;;;12.16;83.18
43125;BME280;49182;50.788;7.318;2023-04-29T02:13:30;100634.47;;;12.26;82.77
43125;BME280;49182;50.788;7.318;2023-04-29T02:15:57;100633.38;;;12.19;83.54
43125;BME280;49182;50.788;7.318;2023-04-29T02:18:23;100637.56;;;12.22;83.15
43125;BME280;49182;50.788;7.318;2023-04-29T02:20:50;100629.47;;;12.23;82.37
43125;BME280;49182;50.788;7.318;2023-04-29T02:23:16;100637.56;;;12.22;82.33
43125;BME280;49182;50.788;7.318;2023-04-29T02:25:43;100636.88;;;12.20;82.67
43125;BME280;49182;50.788;7.318;2023-04-29T02:28:11;100637.72;;;12.20;82.48
43125;BME280;49182;50.788;7.318;2023-04-29T02:30:39;100632.00;;;12.15;82.23
43125;BME280;49182;50.788;7.318;2023-04-29T02:33:06;100635.38;;;12.07;82.19
43125;BME280;49182;50.788;7.318;2023-04-29T02:35:34;100641.78;;;12.05;82.44
43125;BME280;49182;50.788;7.318;2023-04-29T02:38:00;100645.97;;;12.07;82.47
43125;BME280;49182;50.788;7.318;2023-04-29T02:40:27;100645.53;;;12.12;82.26
43125;BME280;49182;50.788;7.318;2023-04-29T02:42:54;100652.50;;;12.13;81.91
43125;BME280;49182;50.788;7.318;2023-04-29T02:45:22;100643.03;;;12.01;82.25
43125;BME280;49182;50.788;7.318;2023-04-29T02:47:48;100641.50;;;11.98;82.44
43125;BME280;49182;50.788;7.318;2023-04-29T02:50:15;100649.56;;;12.06;81.69
43125;BME280;49182;50.788;7.318;2023-04-29T02:52:42;100634.44;;;11.89;81.97
43125;BME280;49182;50.788;7.318;2023-04-29T02:55:09;100645.81;;;11.99;82.50
43125;BME280;49182;50.788;7.318;2023-04-29T02:57:35;100657.38;;;11.98;82.76
43125;BME280;49182;50.788;7.318;2023-04-29T03:00:03;100636.50;;;11.86;82.79
43125;BME280;49182;50.788;7.318;2023-04-29T03:02:31;100654.59;;;12.00;82.72
43125;BME280;49182;50.788;7.318;2023-04-29T03:04:58;100656.56;;;11.88;83.51
43125;BME280;49182;50.788;7.318;2023-04-29T03:07:25;100653.50;;;11.93;83.14
43125;BME280;49182;50.788;7.318;2023-04-29T03:09:52;100662.31;;;11.84;83.67
43125;BME280;49182;50.788;7.318;2023-04-29T03:12:19;100664.94;;;11.84;83.37
43125;BME280;49182;50.788;7.318;2023-04-29T03:14:45;100651.56;;;11.75;83.90
43125;BME280;49182;50.788;7.318;2023-04-29T03:17:12;100666.06;;;11.81;83.25
43125;BME280;49182;50.788;7.318;2023-04-29T03:19:41;100666.06;;;11.81;83.24
43125;BME280;49182;50.788;7.318;2023-04-29T03:22:07;100647.53;;;11.71;83.35
43125;BME280;49182;50.788;7.318;2023-04-29T03:24:34;100675.78;;;11.81;84.45
43125;BME280;49182;50.788;7.318;2023-04-29T03:27:01;100659.50;;;11.75;84.20
43125;BME280;49182;50.788;7.318;2023-04-29T03:29:28;100673.56;;;11.86;83.80
43125;BME280;49182;50.788;7.318;2023-04-29T03:31:54;100671.06;;;11.84;83.91
43125;BME280;49182;50.788;7.318;2023-04-29T03:34:21;100664.25;;;11.82;83.80
43125;BME280;49182;50.788;7.318;2023-04-29T03:36:58;100677.88;;;11.87;83.54
43125;BME280;49182;50.788;7.318;2023-04-29T03:39:24;100647.66;;;11.70;83.67
43125;BME280;49182;50.788;7.318;2023-04-29T03:41:51;100683.16;;;11.87;83.18
43125;BME280;49182;50.788;7.318;2023-04-29T03:44:18;100679.84;;;11.75;83.82
43125;BME280;49182;50.788;7.318;2023-04-29T03:46:44;100682.34;;;11.77;83.96
43125;BME280;49182;50.788;7.318;2023-04-29T03:49:11;100683.06;;;11.79;84.20
43125;BME280;49182;50.788;7.318;2023-04-29T03:51:37;100673.56;;;11.76;84.15
43125;BME280;49182;50.788;7.318;2023-04-29T03:54:11;100670.50;;;11.71;84.07
43125;BME280;49182;50.788;7.318;2023-04-29T03:56:38;100670.34;;;11.72;84.03
43125;BME280;49182;50.788;7.318;2023-04-29T03:59:05;100682.16;;;11.68;84.65
43125;BME280;49182;50.788;7.318;2023-04-29T04:01:32;100683.97;;;11.68;84.38
43125;BME280;49182;50.788;7.318;2023-04-29T04:03:58;100665.06;;;11.53;84.74
43125;BME280;49182;50.788;7.318;2023-04-29T04:06:26;100683.97;;;11.68;84.93
43125;BME280;49182;50.788;7.318;2023-04-29T04:08:53;100695.25;;;11.70;85.06
43125;BME280;49182;50.788;7.318;2023-04-29T04:11:26;100692.75;;;11.68;85.20
43125;BME280;49182;50.788;7.318;2023-04-29T04:13:58;100697.06;;;11.69;85.52
43125;BME280;49182;50.788;7.318;2023-04-29T04:16:25;100697.78;;;11.71;85.56
43125;BME280;49182;50.788;7.318;2023-04-29T04:18:52;100705.84;;;11.70;85.96
43125;BME280;49182;50.788;7.318;2023-04-29T04:21:20;100661.97;;;11.48;85.92
43125;BME280;49182;50.788;7.318;2023-04-29T04:23:55;100705.72;;;11.71;86.79
43125;BME280;49182;50.788;7.318;2023-04-29T04:26:23;100684.97;;;11.57;87.16
43125;BME280;49182;50.788;7.318;2023-04-29T04:29:15;100706.38;;;11.54;88.72
43125;BME280;49182;50.788;7.318;2023-04-29T04:32:07;100708.78;;;11.48;89.54
43125;BME280;49182;50.788;7.318;2023-04-29T04:34:37;100700.50;;;11.31;90.04
43125;BME280;49182;50.788;7.318;2023-04-29T04:37:03;100716.13;;;11.44;90.17
43125;BME280;49182;50.788;7.318;2023-04-29T04:39:31;100691.88;;;11.29;90.45
43125;BME280;49182;50.788;7.318;2023-04-29T04:41:58;100719.72;;;11.43;90.65
43125;BME280;49182;50.788;7.318;2023-04-29T04:44:28;100731.97;;;11.44;89.99
43125;BME280;49182;50.788;7.318;2023-04-29T04:47:15;100735.88;;;11.40;90.47
43125;BME280;49182;50.788;7.318;2023-04-29T04:49:54;100742.09;;;11.29;90.18
43125;BME280;49182;50.788;7.318;2023-04-29T04:52:21;100747.53;;;11.28;91.06
43125;BME280;49182;50.788;7.318;2023-04-29T04:54:59;100714.66;;;11.02;90.77
43125;BME280;49182;50.788;7.318;2023-04-29T04:57:28;100759.22;;;11.25;90.96
43125;BME280;49182;50.788;7.318;2023-04-29T05:00:00;100745.56;;;11.20;90.71
43125;BME280;49182;50.788;7.318;2023-04-29T05:02:27;100757.44;;;11.35;90.35
43125;BME280;49182;50.788;7.318;2023-04-29T05:04:54;100745.81;;;11.17;90.27
43125;BME280;49182;50.788;7.318;2023-04-29T05:07:24;100763.09;;;11.21;90.39
43125;BME280;49182;50.788;7.318;2023-04-29T05:09:59;100777.94;;;11.13;90.88
43125;BME280;49182;50.788;7.318;2023-04-29T05:12:26;100778.47;;;11.07;90.31
43125;BME280;49182;50.788;7.318;2023-04-29T05:14:53;100759.38;;;10.93;90.19
43125;BME280;49182;50.788;7.318;2023-04-29T05:17:21;100783.34;;;11.11;90.36
43125;BME280;49182;50.788;7.318;2023-04-29T05:19:48;100780.88;;;11.10;90.25
43125;BME280;49182;50.788;7.318;2023-04-29T05:22:15;100786.47;;;11.16;90.76
43125;BME280;49182;50.788;7.318;2023-04-29T05:24:41;100793.38;;;11.08;91.19
43125;BME280;49182;50.788;7.318;2023-04-29T05:27:08;100793.13;;;11.11;91.47
43125;BME280;49182;50.788;7.318;2023-04-29T05:29:35;100798.41;;;11.11;91.13
43125;BME280;49182;50.788;7.318;2023-04-29T05:32:02;100802.25;;;11.07;91.32
43125;BME280;49182;50.788;7.318;2023-04-29T05:34:30;100805.34;;;11.12;91.46
43125;BME280;49182;50.788;7.318;2023-04-29T05:36:57;100808.44;;;11.17;91.22
43125;BME280;49182;50.788;7.318;2023-04-29T05:39:24;100811.09;;;11.17;91.33
43125;BME280;49182;50.788;7.318;2023-04-29T05:42:05;100729.81;;;10.69;90.26
43125;BME280;49182;50.788;7.318;2023-04-29T05:44:39;100815.13;;;11.21;90.34
43125;BME280;49182;50.788;7.318;2023-04-29T05:47:06;100827.38;;;11.22;90.54
43125;BME280;49182;50.788;7.318;2023-04-29T05:49:34;100822.94;;;11.22;90.22
43125;BME280;49182;50.788;7.318;2023-04-29T05:52:01;100828.47;;;11.19;90.15
43125;BME280;49182;50.788;7.318;2023-04-29T05:54:27;100838.19;;;11.19;90.19
43125;BME280;49182;50.788;7.318;2023-04-29T05:56:55;100823.72;;;11.13;90.23
43125;BME280;49182;50.788;7.318;2023-04-29T05:59:22;100832.22;;;11.17;89.47
43125;BME280;49182;50.788;7.318;2023-04-29T06:01:52;100837.50;;;11.17;89.75
43125;BME280;49182;50.788;7.318;2023-04-29T06:04:19;100844.81;;;11.04;89.60
43125;BME280;49182;50.788;7.318;2023-04-29T06:07:11;100850.34;;;11.01;89.65
43125;BME280;49182;50.788;7.318;2023-04-29T06:09:56;100856.34;;;11.03;89.69
43125;BME280;49182;50.788;7.318;2023-04-29T06:12:24;100857.75;;;11.07;89.94
43125;BME280;49182;50.788;7.318;2023-04-29T06:14:53;100830.59;;;10.95;89.73
43125;BME280;49182;50.788;7.318;2023-04-29T06:17:20;100860.59;;;11.15;89.52
43125;BME280;49182;50.788;7.318;2023-04-29T06:23:29;100880.47;;;11.19;88.97
43125;BME280;49182;50.788;7.318;2023-04-29T06:25:57;100878.44;;;11.22;88.93
43125;BME280;49182;50.788;7.318;2023-04-29T06:28:24;100872.16;;;11.23;89.25
43125;BME280;49182;50.788;7.318;2023-04-29T06:30:51;100884.59;;;11.32;89.09
43125;BME280;49182;50.788;7.318;2023-04-29T06:33:18;100889.75;;;11.34;88.86
43125;BME280;49182;50.788;7.318;2023-04-29T06:35:45;100895.88;;;11.34;87.70
43125;BME280;49182;50.788;7.318;2023-04-29T06:38:22;100892.78;;;11.29;88.46
43125;BME280;49182;50.788;7.318;2023-04-29T06:41:08;100894.44;;;11.30;89.14
43125;BME280;49182;50.788;7.318;2023-04-29T06:44:01;100896.97;;;11.32;88.45
43125;BME280;49182;50.788;7.318;2023-04-29T06:46:54;100905.75;;;11.32;88.12
43125;BME280;49182;50.788;7.318;2023-04-29T06:49:31;100913.66;;;11.32;88.54
43125;BME280;49182;50.788;7.318;2023-04-29T06:51:58;100916.00;;;11.26;88.82
43125;BME280;49182;50.788;7.318;2023-04-29T06:54:25;100914.75;;;11.30;88.78
43125;BME280;49182;50.788;7.318;2023-04-29T06:56:53;100914.59;;;11.22;89.46
43125;BME280;49182;50.788;7.318;2023-04-29T06:59:20;100924.56;;;11.18;89.35
43125;BME280;49182;50.788;7.318;2023-04-29T07:01:47;100912.91;;;11.21;88.87
43125;BME280;49182;50.788;7.318;2023-04-29T07:04:18;100928.81;;;11.30;88.69
43125;BME280;49182;50.788;7.318;2023-04-29T07:06:46;100925.34;;;11.30;88.74
43125;BME280;49182;50.788;7.318;2023-04-29T07:09:13;100928.97;;;11.29;88.84
43125;BME280;49182;50.788;7.318;2023-04-29T07:11:40;100944.94;;;11.27;89.05
43125;BME280;49182;50.788;7.318;2023-04-29T07:14:08;100944.63;;;11.21;88.97
43125;BME280;49182;50.788;7.318;2023-04-29T07:16:35;100941.59;;;11.25;88.53
43125;BME280;49182;50.788;7.318;2023-04-29T07:19:01;100952.34;;;11.33;88.57
43125;BME280;49182;50.788;7.318;2023-04-29T07:21:28;100958.59;;;11.32;88.60
43125;BME280;49182;50.788;7.318;2023-04-29T07:23:55;100960.84;;;11.37;88.88
43125;BME280;49182;50.788;7.318;2023-04-29T07:26:22;100964.47;;;11.36;89.03
43125;BME280;49182;50.788;7.318;2023-04-29T07:28:49;100968.66;;;11.39;89.26
43125;BME280;49182;50.788;7.318;2023-04-29T07:31:17;100972.25;;;11.38;89.28
43125;BME280;49182;50.788;7.318;2023-04-29T07:33:44;100968.53;;;11.40;89.76
43125;BME280;49182;50.788;7.318;2023-04-29T07:36:10;100973.31;;;11.46;89.48
43125;BME280;49182;50.788;7.318;2023-04-29T07:38:37;100978.47;;;11.48;88.52
43125;BME280;49182;50.788;7.318;2023-04-29T07:41:04;100973.34;;;11.56;88.42
43125;BME280;49182;50.788;7.318;2023-04-29T07:43:31;100974.38;;;11.64;86.94
43125;BME280;49182;50.788;7.318;2023-04-29T07:45:58;100977.44;;;11.69;87.31
43125;BME280;49182;50.788;7.318;2023-04-29T07:48:26;100957.66;;;11.64;86.77
43125;BME280;49182;50.788;7.318;2023-04-29T07:50:52;100984.34;;;11.82;86.45
43125;BME280;49182;50.788;7.318;2023-04-29T07:53:19;100976.00;;;11.86;86.58
43125;BME280;49182;50.788;7.318;2023-04-29T07:55:46;100980.22;;;11.89;86.58
43125;BME280;49182;50.788;7.318;2023-04-29T07:58:12;100972.16;;;11.90;86.83
43125;BME280;49182;50.788;7.318;2023-04-29T08:00:39;100988.88;;;12.00;85.09
43125;BME280;49182;50.788;7.318;2023-04-29T08:03:05;100988.81;;;11.81;84.75
43125;BME280;49182;50.788;7.318;2023-04-29T08:05:33;100987.97;;;11.81;85.37
43125;BME280;49182;50.788;7.318;2023-04-29T08:08:01;100997.31;;;11.85;86.08
43125;BME280;49182;50.788;7.318;2023-04-29T08:10:27;100989.78;;;11.59;87.85
43125;BME280;49182;50.788;7.318;2023-04-29T08:12:54;100994.03;;;11.71;87.02
43125;BME280;49182;50.788;7.318;2023-04-29T08:15:21;101003.59;;;11.84;86.42
43125;BME280;49182;50.788;7.318;2023-04-29T08:17:48;100997.16;;;11.86;86.48
43125;BME280;49182;50.788;7.318;2023-04-29T08:20:14;101003.97;;;11.79;86.86
43125;BME280;49182;50.788;7.318;2023-04-29T08:22:43;101003.41;;;11.75;85.96
43125;BME280;49182;50.788;7.318;2023-04-29T08:25:10;101011.97;;;11.89;86.04
43125;BME280;49182;50.788;7.318;2023-04-29T08:27:36;101014.06;;;11.95;85.20
43125;BME280;49182;50.788;7.318;2023-04-29T08:30:04;101013.41;;;12.02;85.82
43125;BME280;49182;50.788;7.318;2023-04-29T08:32:31;101011.63;;;12.12;85.45
43125;BME280;49182;50.788;7.318;2023-04-29T08:34:58;101013.84;;;12.17;85.42
43125;BME280;49182;50.788;7.318;2023-04-29T08:37:24;101019.03;;;12.28;84.74
43125;BME280;49182;50.788;7.318;2023-04-29T08:39:52;101008.59;;;12.27;84.87
43125;BME280;49182;50.788;7.318;2023-04-29T08:42:31;101023.38;;;12.29;83.60
43125;BME280;49182;50.788;7.318;2023-04-29T08:44:59;101018.25;;;12.37;84.46
43125;BME280;49182;50.788;7.318;2023-04-29T08:47:26;101024.69;;;12.54;83.41
43125;BME280;49182;50.788;7.318;2023-04-29T08:49:55;101023.16;;;12.51;83.20
43125;BME280;49182;50.788;7.318;2023-04-29T08:52:22;101025.56;;;12.64;82.88
43125;BME280;49182;50.788;7.318;2023-04-29T08:54:49;101028.34;;;12.72;82.11
43125;BME280;49182;50.788;7.318;2023-04-29T08:57:18;101032.69;;;12.83;82.04
43125;BME280;49182;50.788;7.318;2023-04-29T08:59:45;101034.34;;;12.84;81.58
43125;BME280;49182;50.788;7.318;2023-04-29T09:02:15;101038.81;;;12.93;81.11
43125;BME280;49182;50.788;7.318;2023-04-29T09:04:46;101033.38;;;13.04;80.59
43125;BME280;49182;50.788;7.318;2023-04-29T09:07:17;101030.59;;;13.15;79.16
43125;BME280;49182;50.788;7.318;2023-04-29T09:09:44;101032.69;;;13.21;79.32
43125;BME280;49182;50.788;7.318;2023-04-29T09:12:11;101028.63;;;13.36;78.89
43125;BME280;49182;50.788;7.318;2023-04-29T09:14:39;101034.19;;;13.53;78.66
43125;BME280;49182;50.788;7.318;2023-04-29T09:17:06;101034.31;;;13.61;77.32
43125;BME280;49182;50.788;7.318;2023-04-29T09:19:35;101040.03;;;13.66;75.46
43125;BME280;49182;50.788;7.318;2023-04-29T09:22:04;101051.25;;;13.41;72.25
43125;BME280;49182;50.788;7.318;2023-04-29T09:24:31;101038.94;;;13.49;74.36
43125;BME280;49182;50.788;7.318;2023-04-29T09:26:58;101048.13;;;13.64;73.12
43125;BME280;49182;50.788;7.318;2023-04-29T09:29:25;101033.88;;;13.65;72.92
43125;BME280;49182;50.788;7.318;2023-04-29T09:31:53;101052.53;;;13.83;72.25
43125;BME280;49182;50.788;7.318;2023-04-29T09:34:29;101031.94;;;13.67;71.16
43125;BME280;49182;50.788;7.318;2023-04-29T09:36:57;101057.38;;;14.07;71.67
43125;BME280;49182;50.788;7.318;2023-04-29T09:39:25;101047.78;;;14.24;72.05
43125;BME280;49182;50.788;7.318;2023-04-29T09:41:57;101056.53;;;14.43;70.90
43125;BME280;49182;50.788;7.318;2023-04-29T09:44:25;101058.97;;;14.54;69.23
43125;BME280;49182;50.788;7.318;2023-04-29T09:46:57;101055.97;;;14.67;69.77
43125;BME280;49182;50.788;7.318;2023-04-29T09:49:25;101067.44;;;14.68;69.88
43125;BME280;49182;50.788;7.318;2023-04-29T09:51:54;101069.94;;;14.32;67.97
43125;BME280;49182;50.788;7.318;2023-04-29T09:54:21;101061.78;;;14.26;67.73
43125;BME280;49182;50.788;7.318;2023-04-29T09:56:50;101069.19;;;14.22;68.82
43125;BME280;49182;50.788;7.318;2023-04-29T09:59:17;101073.91;;;14.28;68.29
43125;BME280;49182;50.788;7.318;2023-04-29T10:01:47;101077.03;;;14.14;67.70
43125;BME280;49182;50.788;7.318;2023-04-29T10:04:16;101077.78;;;14.06;68.41
43125;BME280;49182;50.788;7.318;2023-04-29T10:06:44;101086.38;;;13.71;68.35
43125;BME280;49182;50.788;7.318;2023-04-29T10:09:12;101104.66;;;13.84;68.40
43125;BME280;49182;50.788;7.318;2023-04-29T10:11:39;101095.63;;;13.67;68.15
43125;BME280;49182;50.788;7.318;2023-04-29T10:14:06;101086.28;;;13.44;68.21
43125;BME280;49182;50.788;7.318;2023-04-29T10:16:45;101107.81;;;13.31;69.37
43125;BME280;49182;50.788;7.318;2023-04-29T10:19:18;101100.81;;;13.30;70.07
43125;BME280;49182;50.788;7.318;2023-04-29T10:21:46;101104.31;;;13.31;70.39
43125;BME280;49182;50.788;7.318;2023-04-29T10:24:17;101106.66;;;13.15;70.21
43125;BME280;49182;50.788;7.318;2023-04-29T10:26:43;101104.44;;;13.20;70.73
43125;BME280;49182;50.788;7.318;2023-04-29T10:29:12;101106.69;;;13.24;71.04
43125;BME280;49182;50.788;7.318;2023-04-29T10:31:40;101113.50;;;13.27;70.92
43125;BME280;49182;50.788;7.318;2023-04-29T10:34:08;101093.13;;;13.08;69.91
43125;BME280;49182;50.788;7.318;2023-04-29T10:36:36;101111.00;;;13.16;70.99
43125;BME280;49182;50.788;7.318;2023-04-29T10:39:04;101081.91;;;12.76;71.61
43125;BME280;49182;50.788;7.318;2023-04-29T10:41:38;101132.13;;;12.96;72.04
43125;BME280;49182;50.788;7.318;2023-04-29T10:44:07;101106.19;;;12.81;72.23
43125;BME280;49182;50.788;7.318;2023-04-29T10:46:34;101123.88;;;12.90;73.04
43125;BME280;49182;50.788;7.318;2023-04-29T10:49:02;101134.38;;;12.91;72.91
43125;BME280;49182;50.788;7.318;2023-04-29T10:51:31;101128.69;;;12.96;72.64
43125;BME280;49182;50.788;7.318;2023-04-29T10:54:00;101130.63;;;12.94;72.65
43125;BME280;49182;50.788;7.318;2023-04-29T10:56:38;101137.13;;;12.90;73.12
43125;BME280;49182;50.788;7.318;2023-04-29T10:59:08;101137.56;;;12.85;73.47
43125;BME280;49182;50.788;7.318;2023-04-29T11:01:44;101139.06;;;12.78;73.41
43125;BME280;49182;50.788;7.318;2023-04-29T11:04:11;101142.13;;;12.74;73.51
43125;BME280;49182;50.788;7.318;2023-04-29T11:06:40;101143.38;;;12.70;73.81
43125;BME280;49182;50.788;7.318;2023-04-29T11:09:10;101145.44;;;12.66;74.67
43125;BME280;49182;50.788;7.318;2023-04-29T11:11:41;101109.13;;;12.47;74.65
43125;BME280;49182;50.788;7.318;2023-04-29T11:14:08;101144.63;;;12.66;74.79
43125;BME280;49182;50.788;7.318;2023-04-29T11:16:35;101103.53;;;12.41;74.92
43125;BME280;49182;50.788;7.318;2023-04-29T11:19:06;101137.66;;;12.65;74.80
43125;BME280;49182;50.788;7.318;2023-04-29T11:21:34;101087.94;;;12.38;75.15
43125;BME280;49182;50.788;7.318;2023-04-29T11:24:01;101136.13;;;12.72;74.92
43125;BME280;49182;50.788;7.318;2023-04-29T11:26:29;101142.19;;;12.93;74.57
43125;BME280;49182;50.788;7.318;2023-04-29T11:28:56;101137.59;;;13.05;74.70
43125;BME280;49182;50.788;7.318;2023-04-29T11:31:25;101125.75;;;13.09;73.64
43125;BME280;49182;50.788;7.318;2023-04-29T11:33:54;101141.50;;;13.10;72.22
43125;BME280;49182;50.788;7.318;2023-04-29T11:36:20;101148.69;;;13.19;72.66
43125;BME280;49182;50.788;7.318;2023-04-29T11:38:47;101159.28;;;13.19;72.93
43125;BME280;49182;50.788;7.318;2023-04-29T11:41:14;101153.38;;;13.06;72.54
43125;BME280;49182;50.788;7.318;2023-04-29T11:43:45;101149.59;;;12.99;71.97
43125;BME280;49182;50.788;7.318;2023-04-29T11:46:12;101128.22;;;12.81;72.30
43125;BME280;49182;50.788;7.318;2023-04-29T11:48:45;101139.66;;;12.82;71.82
43125;BME280;49182;50.788;7.318;2023-04-29T11:51:12;101151.16;;;13.02;72.65
43125;BME280;49182;50.788;7.318;2023-04-29T11:53:39;101161.16;;;12.98;73.68
43125;BME280;49182;50.788;7.318;2023-04-29T11:56:07;101157.38;;;12.91;74.48
43125;BME280;49182;50.788;7.318;2023-04-29T11:58:34;101162.44;;;12.94;74.05
43125;BME280;49182;50.788;7.318;2023-04-29T12:01:02;101162.84;;;12.99;74.31
43125;BME280;49182;50.788;7.318;2023-04-29T12:03:31;101157.00;;;13.05;72.82
43125;BME280;49182;50.788;7.318;2023-04-29T12:05:58;101161.75;;;13.02;73.91
43125;BME280;49182;50.788;7.318;2023-04-29T12:08:27;101149.44;;;12.91;74.36
43125;BME280;49182;50.788;7.318;2023-04-29T12:10:56;101163.56;;;13.11;74.98
43125;BME280;49182;50.788;7.318;2023-04-29T12:13:23;101170.44;;;13.23;73.85
43125;BME280;49182;50.788;7.318;2023-04-29T12:15:51;101169.91;;;13.19;74.52
43125;BME280;49182;50.788;7.318;2023-04-29T12:18:19;101167.66;;;13.24;75.16
43125;BME280;49182;50.788;7.318;2023-04-29T12:20:46;101165.72;;;13.26;75.11
43125;BME280;49182;50.788;7.318;2023-04-29T12:23:14;101169.78;;;13.30;73.69
43125;BME280;49182;50.788;7.318;2023-04-29T12:25:40;101170.88;;;13.28;74.12
43125;BME280;49182;50.788;7.318;2023-04-29T12:28:11;101174.91;;;13.22;74.36
43125;BME280;49182;50.788;7.318;2023-04-29T12:30:37;101179.00;;;13.26;74.58
43125;BME280;49182;50.788;7.318;2023-04-29T12:33:05;101181.47;;;13.28;74.56
43125;BME280;49182;50.788;7.318;2023-04-29T12:35:35;101176.19;;;13.18;73.30
43125;BME280;49182;50.788;7.318;2023-04-29T12:38:02;101183.44;;;13.26;73.76
43125;BME280;49182;50.788;7.318;2023-04-29T12:40:30;101181.91;;;13.23;74.25
43125;BME280;49182;50.788;7.318;2023-04-29T12:42:57;101175.59;;;13.15;74.18
43125;BME280;49182;50.788;7.318;2023-04-29T12:45:28;101180.81;;;13.26;74.76
43125;BME280;49182;50.788;7.318;2023-04-29T12:47:55;101185.81;;;13.19;74.54
43125;BME280;49182;50.788;7.318;2023-04-29T12:50:28;101181.41;;;13.09;74.60
43125;BME280;49182;50.788;7.318;2023-04-29T12:52:57;101083.50;;;12.48;75.33
43125;BME280;49182;50.788;7.318;2023-04-29T12:55:24;101185.63;;;13.11;75.30
43125;BME280;49182;50.788;7.318;2023-04-29T12:57:51;101194.53;;;13.10;75.54
43125;BME280;49182;50.788;7.318;2023-04-29T13:00:18;101194.41;;;13.12;75.74
43125;BME280;49182;50.788;7.318;2023-04-29T13:02:44;101189.84;;;13.14;75.19